GCLPGMAD

Guest
Details From GCLP - Gran Canaria
To GMAD - Agadir AL MASSIRA
Flight Number -
Tags generated
Created
Modified
Stats Distance 345 nm / 639 km
Max Altitude 35,000 ft / 10,668 m
Waypoints 6
Social Downloads 0
Likes 0
Share VATSIM

Download

Looking for another format? Having issues loading an existing format? Contact us
Advertisement - Login to hide

Notes

Basic altitude profile: - Ascent Rate: 2500ft/min - Ascent Speed: 250kts - Cruise Altitude: 35000ft - Cruise Speed: 420kts - Descent Rate: 1500ft/min - Descent Speed: 250kts Options: - Use NATs: yes - Use PACOTS: yes - Use low airways: yes - Use high airways: yes

Route

GCLP FTV UN869 RUSIK G850S GOSPI GMAD

ID Type Via Altitude (ft/m) Position (lat/lon) Dist (leg/tot) Name
O GCLP APT - 0 / 0 27.93154 / -15.38559 - / 0 nm Gran Canaria
FTV VOR - 29,600 / 9,022 28.43078 / -13.86450 85 / 85 nm FUERTEVENTURA VOR-DME
RUSIK FIX UN869 (AWY-HI) 35,000 / 10,668 28.90611 / -12.81639 62 / 148 nm
BABNA FIX G850S (AWY-LO) 9,300 / 2,835 30.01194 / -10.17083 153 / 301 nm
GOSPI FIX G850S (AWY-LO) 5,500 / 1,676 30.14750 / -9.82167 19 / 321 nm
O GMAD APT - 0 / 0 30.32262 / -9.41153 23 / 345 nm Agadir AL MASSIRA

Altitude Profile

Advertisement - Login to hide

Weather


0- 5 10 15 20 25 30 35+ Temperature / °C

Clouds and Precipitation
Forecast for 2018-10-23 12:00 UTC. Updated 6 hours ago

Ground ~20,000 ft ~40,000 ft Winds

GCLP

Details ICAO GCLP (LPA)
Name Gran Canaria - Las Palmas
Region Canary Islands
Timezone Atlantic/Canary (UTC+1.0)
Stats Elevation 78 ft / 24 m (AMSL)
Location 27.931600° -15.385600°
Runways 2
Magnetic Variation 4.586° W

METAR

GCLP 231500Z 18017KT 9999 FEW030 SCT040 26/20 Q1017 NOSIG

Decode

TAF

TAF GCLP 231400Z 2315/2415 16014KT 9999 FEW030 SCT040 TX25/2315Z TN19/2405Z PROB30 TEMPO 2315/2319 4900 RA BECMG 2317/2320 VRB04KT

Decode

Departure Runways

ID Width Length Bearing (true/mag) Surface Threshold Overrun Markings Lighting
03L 148 ft / 45 m 10,181 ft / 3,103 m 21.33° / 25.92° ASPHALT 0 ft / 0 m 656 ft / 200 m PREC-APP CENTERLINE EDGE THRESHOLD CALVERT REIL-OMNI
03R 148 ft / 45 m 10,181 ft / 3,103 m 21.33° / 25.92° ASPHALT 0 ft / 0 m 656 ft / 200 m PREC-APP CENTERLINE EDGE THRESHOLD CALVERT REIL-OMNI
21L 148 ft / 45 m 10,181 ft / 3,103 m 201.34° / 205.92° ASPHALT 0 ft / 0 m 666 ft / 203 m PREC-APP CENTERLINE EDGE THRESHOLD MALS REIL-OMNI
21R 148 ft / 45 m 10,181 ft / 3,103 m 201.34° / 205.92° ASPHALT 0 ft / 0 m 755 ft / 230 m PREC-APP CENTERLINE EDGE THRESHOLD MALS REIL-OMNI

GMAD

Details ICAO GMAD (AGA)
Name Agadir Al Massira Intl
Region Morocco
Timezone Africa/Casablanca (UTC+1.0)
Stats Elevation 250 ft / 76 m (AMSL)
Location 30.322600° -9.411510°
Runways 1
Magnetic Variation 2.387° W

METAR

GMAD 231500Z 27010KT 230V290 9999 FEW033 27/14 Q1019 NOSIG

Decode

TAF

TAF GMAD 231100Z 2312/2418 26008KT 9999 SCT026 SCT080= TAF GMMN 231100Z 2312/2418 12004KT 9999 FEW016 SCT100 BECMG 2315/2317 36013KT CAVOK BECMG 2402/2404 10004KT TEMPO 2404/2406 4000 BR SCT010 BECMG 2414/2416 36010KT

Decode

Destination Runways

ID Width Length Bearing (true/mag) Surface Threshold Overrun Markings Lighting
09 148 ft / 45 m 10,482 ft / 3,195 m 91.58° / 93.96° ASPHALT 0 ft / 0 m 0 ft / 0 m PREC-APP CENTERLINE EDGE THRESHOLD
27 148 ft / 45 m 10,482 ft / 3,195 m 271.59° / 273.98° ASPHALT 0 ft / 0 m 0 ft / 0 m PREC-APP CENTERLINE EDGE THRESHOLD CALVERT-ILS TDZ

Approach Navaids

Runway Type Ident Frequency Range Bearing (true/mag) Slope Elevation
27 OM OM - - 271.59° / 273.98 ° - 250 ft / 76 m (AMSL)
27 LOC-ILS ADA 110.30 MHz 18 nm / 33 km 273.07° / 275.46 ° - 250 ft / 76 m (AMSL)
27 GS ADA 110.30 MHz 10 nm / 19 km 272.18° / 274.57 ° 3.00° 250 ft / 76 m (AMSL)

Popular Alternatives